createdAt,value
2022-10-19T00:01:16.085Z,89.19
2022-10-19T00:03:45.799Z,88.86
2022-10-19T00:06:26.625Z,89.59
2022-10-19T00:08:55.735Z,89.45
2022-10-19T00:11:24.654Z,89.59
2022-10-19T00:13:55.607Z,90.35
2022-10-19T00:16:28.197Z,91.07
2022-10-19T00:18:58.036Z,90.45
2022-10-19T00:21:25.839Z,91.27
2022-10-19T00:23:53.908Z,90.72
2022-10-19T00:26:22.217Z,90.46
2022-10-19T00:28:50.611Z,90.68
2022-10-19T00:31:18.610Z,90.82
2022-10-19T00:33:49.215Z,90.42
2022-10-19T00:36:21.202Z,91.21
2022-10-19T00:38:48.956Z,90.48
2022-10-19T00:41:16.915Z,90.22
2022-10-19T00:44:13.953Z,91.35
2022-10-19T00:46:43.688Z,91.85
2022-10-19T00:49:14.032Z,91.22
2022-10-19T00:51:44.043Z,92.54
2022-10-19T00:54:11.816Z,92.42
2022-10-19T00:56:41.215Z,93.52
2022-10-19T00:59:09.526Z,94.39
2022-10-19T01:01:37.203Z,94.93
2022-10-19T01:04:05.146Z,95.36
2022-10-19T01:06:33.329Z,93.55
2022-10-19T01:09:01.238Z,92.28
2022-10-19T01:12:00.734Z,90.80
2022-10-19T01:14:56.243Z,89.22
2022-10-19T01:17:56.249Z,87.33
2022-10-19T01:20:59.444Z,85.48
2022-10-19T01:23:51.443Z,85.32
2022-10-19T01:26:24.644Z,84.95
2022-10-19T01:28:54.187Z,85.04
2022-10-19T01:31:32.698Z,85.04
2022-10-19T01:34:20.149Z,84.89
2022-10-19T01:37:00.096Z,84.84
2022-10-19T01:39:37.896Z,85.20
2022-10-19T01:42:30.280Z,85.25
2022-10-19T01:45:03.740Z,85.59
2022-10-19T01:47:38.404Z,85.86
2022-10-19T01:50:27.345Z,86.90
2022-10-19T01:52:55.278Z,87.39
2022-10-19T01:55:24.707Z,87.73
2022-10-19T01:57:59.525Z,88.23
2022-10-19T02:00:28.726Z,88.46
2022-10-19T02:02:56.637Z,88.68
2022-10-19T02:05:32.583Z,89.06
2022-10-19T02:08:04.377Z,89.47
2022-10-19T02:10:32.449Z,90.41
2022-10-19T02:13:03.647Z,90.25
2022-10-19T02:15:32.053Z,91.00
2022-10-19T02:18:00.062Z,91.34
2022-10-19T02:20:29.936Z,91.39
2022-10-19T02:22:57.606Z,92.17
2022-10-19T02:25:25.954Z,91.83
2022-10-19T02:27:53.685Z,92.63
2022-10-19T02:30:22.579Z,92.02
2022-10-19T02:32:50.195Z,92.43
2022-10-19T02:35:18.104Z,93.45
2022-10-19T02:37:45.815Z,92.46
2022-10-19T02:40:14.738Z,92.52
2022-10-19T02:42:47.627Z,92.18
2022-10-19T02:45:21.183Z,92.13
2022-10-19T02:48:00.576Z,91.85
2022-10-19T02:50:28.907Z,91.80
2022-10-19T02:53:00.425Z,92.29
2022-10-19T02:55:29.220Z,91.76
2022-10-19T02:57:57.551Z,92.17
2022-10-19T03:00:25.425Z,92.63
2022-10-19T03:02:53.183Z,92.65
2022-10-19T03:05:21.261Z,92.62
2022-10-19T03:07:48.849Z,92.94
2022-10-19T03:10:16.874Z,93.16
2022-10-19T03:12:44.552Z,94.42
2022-10-19T03:15:27.360Z,95.26
2022-10-19T03:17:57.445Z,94.21
2022-10-19T03:20:25.256Z,94.20
2022-10-19T03:25:20.598Z,94.46
2022-10-19T03:27:48.245Z,94.11
2022-10-19T03:30:16.172Z,93.77
2022-10-19T03:32:46.435Z,93.54
2022-10-19T03:35:14.026Z,93.61
2022-10-19T03:37:42.710Z,93.93
2022-10-19T03:40:10.497Z,94.15
2022-10-19T03:42:39.080Z,94.13
2022-10-19T03:45:07.291Z,93.94
2022-10-19T03:47:35.276Z,94.19
2022-10-19T03:50:06.192Z,94.38
2022-10-19T03:52:34.754Z,94.45
2022-10-19T03:55:02.514Z,94.95
2022-10-19T03:57:30.314Z,94.73
2022-10-19T03:59:58.068Z,95.38
2022-10-19T04:02:25.731Z,94.98
2022-10-19T04:04:57.257Z,95.21
2022-10-19T04:07:25.016Z,94.92
2022-10-19T04:09:52.594Z,95.03
2022-10-19T04:12:21.354Z,95.52
2022-10-19T04:14:57.708Z,95.25
2022-10-19T04:17:26.189Z,95.35
2022-10-19T04:19:54.534Z,95.96
2022-10-19T04:22:23.489Z,95.75
2022-10-19T04:24:51.440Z,95.98
2022-10-19T04:27:19.502Z,96.31
2022-10-19T04:29:47.561Z,96.02
2022-10-19T04:32:15.407Z,96.98
2022-10-19T04:34:43.130Z,97.01
2022-10-19T04:37:10.746Z,96.57
2022-10-19T04:39:41.144Z,96.08
2022-10-19T04:42:09.445Z,97.55
2022-10-19T04:44:37.140Z,97.04
2022-10-19T04:47:05.168Z,97.37
2022-10-19T04:49:33.048Z,97.35
2022-10-19T04:52:03.931Z,97.33
2022-10-19T04:54:32.107Z,97.08
2022-10-19T04:56:59.797Z,97.19
2022-10-19T04:59:28.354Z,97.34
2022-10-19T05:01:56.103Z,97.72
2022-10-19T05:04:23.877Z,98.33
2022-10-19T05:06:52.066Z,97.50
2022-10-19T05:09:19.982Z,97.15
2022-10-19T05:11:50.438Z,96.84
2022-10-19T05:14:20.111Z,96.85
2022-10-19T05:16:47.698Z,96.46
2022-10-19T05:19:18.239Z,96.15
2022-10-19T05:21:45.838Z,95.27
2022-10-19T05:24:13.943Z,94.73
2022-10-19T05:26:43.489Z,94.26
2022-10-19T05:29:12.735Z,93.89
2022-10-19T05:31:40.813Z,93.40
2022-10-19T05:34:08.852Z,92.61
2022-10-19T05:36:38.183Z,92.35
2022-10-19T05:39:12.758Z,92.07
2022-10-19T05:41:42.918Z,91.92
2022-10-19T05:44:14.511Z,91.46
2022-10-19T05:46:42.304Z,90.92
2022-10-19T05:49:11.460Z,90.21
2022-10-19T05:51:39.206Z,89.96
2022-10-19T05:54:08.166Z,89.70
2022-10-19T05:56:36.072Z,89.14
2022-10-19T05:59:05.636Z,88.92
2022-10-19T06:01:34.740Z,88.54
2022-10-19T06:04:03.767Z,88.26
2022-10-19T06:06:34.288Z,87.83
2022-10-19T06:09:01.994Z,87.81
2022-10-19T06:11:31.321Z,87.70
2022-10-19T06:14:02.824Z,87.30
2022-10-19T06:16:31.985Z,86.98
2022-10-19T06:18:59.932Z,86.65
2022-10-19T06:21:30.834Z,86.42
2022-10-19T06:24:00.717Z,85.96
2022-10-19T06:26:28.955Z,85.66
2022-10-19T06:29:00.341Z,85.27
2022-10-19T06:31:29.455Z,84.39
2022-10-19T06:33:57.151Z,84.34
2022-10-19T06:36:27.062Z,83.13
2022-10-19T06:38:55.179Z,82.51
2022-10-19T06:41:22.948Z,81.86
2022-10-19T06:43:51.979Z,80.90
2022-10-19T06:46:22.207Z,80.63
2022-10-19T06:48:55.169Z,80.10
2022-10-19T06:51:23.500Z,79.56
2022-10-19T06:53:56.629Z,79.21
2022-10-19T06:56:25.731Z,79.12
2022-10-19T06:58:54.184Z,79.16
2022-10-19T07:01:22.444Z,78.35
2022-10-19T07:03:53.433Z,78.04
2022-10-19T07:06:21.349Z,77.87
2022-10-19T07:08:49.641Z,77.73
2022-10-19T07:11:21.068Z,75.80
2022-10-19T07:13:48.679Z,75.97
2022-10-19T07:16:20.627Z,75.45
2022-10-19T07:18:53.151Z,74.54
2022-10-19T07:21:22.005Z,73.86
2022-10-19T07:23:49.677Z,73.93
2022-10-19T07:26:21.541Z,73.99
2022-10-19T07:28:49.464Z,74.04
2022-10-19T07:31:20.393Z,73.06
2022-10-19T07:33:52.225Z,74.22
2022-10-19T07:36:19.870Z,73.74
2022-10-19T07:38:47.733Z,73.40
2022-10-19T07:41:17.145Z,72.44
2022-10-19T07:43:45.213Z,72.20
2022-10-19T07:46:20.460Z,72.67
2022-10-19T07:48:48.148Z,72.01
2022-10-19T07:51:18.717Z,71.53
2022-10-19T07:53:46.670Z,71.18
2022-10-19T07:56:16.483Z,71.52
2022-10-19T07:58:44.313Z,70.42
2022-10-19T08:01:14.278Z,70.30
2022-10-19T08:04:31.678Z,69.40
2022-10-19T08:06:32.188Z,66.66
2022-10-19T08:09:03.855Z,65.98
2022-10-19T08:11:34.804Z,63.89
2022-10-19T08:14:04.062Z,63.17
2022-10-19T08:16:37.673Z,63.43
2022-10-19T08:19:18.925Z,63.09
2022-10-19T08:21:47.252Z,62.43
2022-10-19T08:24:16.472Z,60.40
2022-10-19T08:26:44.607Z,58.71
2022-10-19T08:29:17.824Z,56.92
2022-10-19T08:31:48.096Z,57.64
2022-10-19T08:34:21.379Z,52.88
2022-10-19T08:36:49.187Z,53.14
2022-10-19T08:39:18.414Z,52.96
2022-10-19T08:42:01.256Z,53.93
2022-10-19T08:44:35.253Z,53.88
2022-10-19T08:47:34.144Z,51.63
2022-10-19T08:50:02.174Z,51.95
2022-10-19T08:52:34.686Z,51.36
2022-10-19T08:55:15.120Z,50.14
2022-10-19T08:58:00.338Z,50.60
2022-10-19T09:00:52.504Z,49.93
2022-10-19T09:03:37.543Z,50.08
2022-10-19T09:06:22.185Z,49.88
2022-10-19T09:08:51.469Z,50.20
2022-10-19T09:11:26.177Z,50.40
2022-10-19T09:14:21.992Z,48.51
2022-10-19T09:16:49.927Z,46.09
2022-10-19T09:19:25.843Z,45.47
2022-10-19T09:22:08.128Z,45.85
2022-10-19T09:24:43.121Z,46.73
2022-10-19T09:27:35.782Z,46.00
2022-10-19T09:30:11.317Z,46.26
2022-10-19T09:32:39.160Z,46.88
2022-10-19T09:35:17.678Z,46.69
2022-10-19T09:37:47.231Z,46.50
2022-10-19T09:40:18.324Z,47.00
2022-10-19T09:42:45.936Z,47.91
2022-10-19T09:45:17.405Z,48.64
2022-10-19T09:47:46.544Z,48.90
2022-10-19T09:50:22.241Z,49.77
2022-10-19T09:52:57.325Z,49.84
2022-10-19T09:55:29.248Z,51.01
2022-10-19T09:58:15.537Z,50.86
2022-10-19T10:00:52.769Z,50.81
2022-10-19T10:03:46.564Z,51.75
2022-10-19T10:06:15.216Z,51.77
2022-10-19T10:08:53.267Z,52.00
2022-10-19T10:11:28.179Z,52.13
2022-10-19T10:13:56.076Z,52.85
2022-10-19T10:16:25.801Z,52.48
2022-10-19T10:19:13.861Z,52.56
2022-10-19T10:21:54.756Z,53.73
2022-10-19T10:24:27.570Z,53.60
2022-10-19T10:26:59.986Z,53.57
2022-10-19T10:29:28.955Z,53.71
2022-10-19T10:32:04.776Z,54.02
2022-10-19T10:34:49.371Z,54.45
2022-10-19T10:37:23.422Z,54.41
2022-10-19T10:39:56.721Z,54.30
2022-10-19T10:42:33.337Z,53.25
2022-10-19T10:45:01.193Z,53.37
2022-10-19T10:47:30.466Z,53.43
2022-10-19T10:50:00.033Z,53.19
2022-10-19T10:52:29.236Z,53.47
2022-10-19T10:55:08.446Z,52.79
2022-10-19T10:57:40.203Z,51.61
2022-10-19T11:00:19.450Z,52.13
2022-10-19T11:02:49.004Z,51.88
2022-10-19T11:05:24.252Z,51.50
2022-10-19T11:07:59.212Z,49.99
2022-10-19T11:10:30.504Z,51.24
2022-10-19T11:13:18.141Z,51.04
2022-10-19T11:16:01.165Z,49.96
2022-10-19T11:18:44.476Z,50.09
2022-10-19T11:21:14.920Z,49.57
2022-10-19T11:23:52.154Z,50.28
2022-10-19T11:26:31.757Z,50.69
2022-10-19T11:29:43.278Z,50.34
2022-10-19T11:32:37.195Z,51.01
2022-10-19T11:35:42.546Z,51.50
2022-10-19T11:39:01.136Z,51.81
2022-10-19T11:41:47.196Z,52.24
2022-10-19T11:44:46.998Z,52.49
2022-10-19T11:47:33.662Z,52.71
2022-10-19T11:50:10.794Z,52.56
2022-10-19T11:53:03.101Z,53.19
2022-10-19T11:55:55.658Z,54.23
2022-10-19T11:58:34.473Z,54.27
2022-10-19T12:01:35.006Z,53.80
2022-10-19T12:04:28.723Z,53.71
2022-10-19T12:07:11.843Z,54.21
2022-10-19T12:09:48.402Z,53.60
2022-10-19T12:12:23.765Z,53.24
2022-10-19T12:14:53.715Z,53.40
2022-10-19T12:17:25.828Z,53.13
2022-10-19T12:19:56.033Z,53.57
2022-10-19T12:22:25.749Z,53.38
2022-10-19T12:24:55.543Z,54.17
2022-10-19T12:27:38.720Z,53.48
2022-10-19T12:30:08.438Z,53.42
2022-10-19T12:33:22.218Z,54.15
2022-10-19T12:36:19.688Z,54.54
2022-10-19T12:39:01.073Z,54.23
2022-10-19T12:41:35.896Z,54.11
2022-10-19T12:44:21.580Z,54.72
2022-10-19T12:46:58.779Z,55.36
2022-10-19T12:49:30.782Z,54.60
2022-10-19T12:51:59.365Z,54.75
2022-10-19T12:54:31.964Z,55.15
2022-10-19T12:57:01.154Z,55.29
2022-10-19T12:59:36.109Z,56.20
2022-10-19T13:02:05.918Z,56.25
2022-10-19T13:04:34.915Z,56.09
2022-10-19T13:07:04.590Z,56.04
2022-10-19T13:09:34.398Z,56.65
2022-10-19T13:12:21.618Z,56.02
2022-10-19T13:15:35.293Z,56.71
2022-10-19T13:18:14.580Z,56.69
2022-10-19T13:20:52.760Z,57.31
2022-10-19T13:23:26.948Z,56.73
2022-10-19T13:26:23.818Z,57.29
2022-10-19T13:28:53.642Z,57.58
2022-10-19T13:31:27.271Z,57.24
2022-10-19T13:33:55.624Z,57.61
2022-10-19T13:36:23.535Z,57.53
2022-10-19T13:38:56.068Z,58.62
2022-10-19T13:41:28.243Z,58.53
2022-10-19T13:44:12.594Z,57.97
2022-10-19T13:47:08.938Z,58.39
2022-10-19T13:50:26.669Z,58.90
2022-10-19T13:53:24.843Z,58.97
2022-10-19T13:56:05.609Z,59.28
2022-10-19T13:58:45.062Z,59.47
2022-10-19T14:01:18.451Z,59.89
2022-10-19T14:04:06.948Z,60.15
2022-10-19T14:06:35.205Z,59.71
2022-10-19T14:09:24.890Z,60.39
2022-10-19T14:11:56.145Z,60.11
2022-10-19T14:14:24.705Z,60.34
2022-10-19T14:16:59.659Z,61.16
2022-10-19T14:19:44.883Z,60.57
2022-10-19T14:22:38.601Z,61.10
2022-10-19T14:25:16.910Z,62.01
2022-10-19T14:27:56.615Z,61.90
2022-10-19T14:30:28.620Z,61.93
2022-10-19T14:32:59.455Z,62.66
2022-10-19T14:35:32.140Z,62.94
2022-10-19T14:38:00.336Z,63.03
2022-10-19T14:40:32.650Z,63.83
2022-10-19T14:43:00.982Z,63.99
2022-10-19T14:45:30.069Z,64.76
2022-10-19T14:48:04.667Z,65.07
2022-10-19T14:50:42.093Z,65.19
2022-10-19T14:53:24.860Z,66.01
2022-10-19T14:55:53.446Z,66.43
2022-10-19T14:58:21.107Z,66.70
2022-10-19T15:00:49.299Z,67.31
2022-10-19T15:03:26.006Z,67.93
2022-10-19T15:06:00.144Z,68.13
2022-10-19T15:08:35.137Z,68.58
2022-10-19T15:11:03.982Z,69.00
2022-10-19T15:13:35.109Z,69.11
2022-10-19T15:16:07.056Z,69.52
2022-10-19T15:18:49.778Z,69.90
2022-10-19T15:21:19.972Z,69.82
2022-10-19T15:23:51.560Z,70.18
2022-10-19T15:26:26.023Z,70.42
2022-10-19T15:28:54.854Z,69.89
2022-10-19T15:31:27.484Z,70.51
2022-10-19T15:33:56.928Z,70.53
2022-10-19T15:36:24.709Z,70.12
2022-10-19T15:39:06.405Z,71.19
2022-10-19T15:41:46.095Z,71.59
2022-10-19T15:44:53.486Z,71.37
2022-10-19T15:47:23.984Z,71.75
2022-10-19T15:49:54.700Z,72.62
2022-10-19T15:52:24.264Z,73.19
2022-10-19T15:54:57.371Z,73.65
2022-10-19T15:57:36.094Z,74.42
2022-10-19T16:00:15.123Z,74.18
2022-10-19T16:02:43.152Z,74.67
2022-10-19T16:05:11.662Z,75.35
2022-10-19T16:07:41.009Z,75.73
2022-10-19T16:10:22.013Z,76.50
2022-10-19T16:12:49.935Z,77.01
2022-10-19T16:15:22.534Z,78.45
2022-10-19T16:17:54.220Z,79.99
2022-10-19T16:20:23.222Z,81.67
2022-10-19T16:22:51.122Z,83.92
2022-10-19T16:25:18.831Z,87.63
2022-10-19T16:27:46.604Z,90.73
2022-10-19T16:30:14.221Z,94.30
2022-10-19T16:32:43.611Z,96.36
2022-10-19T16:35:11.818Z,98.66
2022-10-19T16:37:40.336Z,99.70
2022-10-19T16:40:09.600Z,100.00
2022-10-19T16:42:37.617Z,100.00
2022-10-19T16:45:05.988Z,100.00
2022-10-19T16:47:34.475Z,100.00
2022-10-19T16:50:02.938Z,100.00
2022-10-19T16:52:33.311Z,100.00
2022-10-19T16:55:01.954Z,100.00
2022-10-19T16:57:29.995Z,100.00
2022-10-19T16:59:57.806Z,100.00
2022-10-19T17:02:25.452Z,100.00
2022-10-19T17:04:53.331Z,100.00
2022-10-19T17:07:21.156Z,100.00
2022-10-19T17:09:52.286Z,100.00
2022-10-19T17:12:25.239Z,100.00
2022-10-19T17:14:59.490Z,100.00
2022-10-19T17:17:40.177Z,100.00
2022-10-19T17:20:11.329Z,100.00
2022-10-19T17:22:39.771Z,100.00
2022-10-19T17:25:07.613Z,100.00
2022-10-19T17:27:35.529Z,100.00
2022-10-19T17:30:03.776Z,100.00
2022-10-19T17:32:33.069Z,100.00
2022-10-19T17:35:01.149Z,100.00
2022-10-19T17:37:28.934Z,100.00
2022-10-19T17:39:56.497Z,100.00
2022-10-19T17:42:24.358Z,100.00
2022-10-19T17:44:54.109Z,100.00
2022-10-19T17:47:21.750Z,100.00
2022-10-19T17:49:49.672Z,100.00
2022-10-19T17:52:17.477Z,100.00
2022-10-19T17:54:54.739Z,100.00
2022-10-19T17:57:36.029Z,100.00
2022-10-19T18:00:05.276Z,100.00
2022-10-19T18:02:40.710Z,100.00
2022-10-19T18:05:09.106Z,100.00
2022-10-19T18:07:36.965Z,100.00
2022-10-19T18:10:05.822Z,100.00
2022-10-19T18:12:35.373Z,100.00
2022-10-19T18:15:03.429Z,100.00
2022-10-19T18:17:31.822Z,100.00
2022-10-19T18:19:59.677Z,100.00
2022-10-19T18:22:27.613Z,100.00
2022-10-19T18:24:55.425Z,100.00
2022-10-19T18:27:23.053Z,100.00
2022-10-19T18:29:50.984Z,100.00
2022-10-19T18:32:19.725Z,100.00
2022-10-19T18:34:47.428Z,100.00
2022-10-19T18:37:15.011Z,100.00
2022-10-19T18:39:42.784Z,100.00
2022-10-19T18:42:12.891Z,100.00
2022-10-19T18:44:41.413Z,100.00
2022-10-19T18:47:09.049Z,100.00
2022-10-19T18:49:36.570Z,100.00
2022-10-19T18:52:04.209Z,100.00
2022-10-19T18:54:32.192Z,100.00
2022-10-19T18:57:00.199Z,100.00
2022-10-19T19:02:00.773Z,100.00
2022-10-19T19:04:28.447Z,100.00
2022-10-19T19:06:57.361Z,100.00
2022-10-19T19:09:26.433Z,100.00
2022-10-19T19:11:57.854Z,100.00
2022-10-19T19:14:26.553Z,100.00
2022-10-19T19:16:56.610Z,100.00
2022-10-19T19:19:25.984Z,100.00
2022-10-19T19:21:54.460Z,100.00
2022-10-19T19:24:22.822Z,100.00
2022-10-19T19:26:52.129Z,100.00
2022-10-19T19:29:20.335Z,100.00
2022-10-19T19:31:48.199Z,100.00
2022-10-19T19:34:15.997Z,100.00
2022-10-19T19:36:48.166Z,100.00
2022-10-19T19:39:18.851Z,100.00
2022-10-19T19:41:47.034Z,100.00
2022-10-19T19:44:14.660Z,100.00
2022-10-19T19:46:42.571Z,100.00
2022-10-19T19:49:10.467Z,100.00
2022-10-19T19:51:38.068Z,100.00
2022-10-19T19:54:06.955Z,100.00
2022-10-19T19:56:34.874Z,100.00
2022-10-19T19:59:05.297Z,100.00
2022-10-19T20:01:33.813Z,100.00
2022-10-19T20:06:31.445Z,100.00
2022-10-19T20:08:59.100Z,100.00
2022-10-19T20:11:28.340Z,100.00
2022-10-19T20:13:56.219Z,100.00
2022-10-19T20:16:28.342Z,100.00
2022-10-19T20:19:09.241Z,100.00
2022-10-19T20:21:37.179Z,100.00
2022-10-19T20:24:06.945Z,100.00
2022-10-19T20:26:35.415Z,100.00
2022-10-19T20:29:03.504Z,100.00
2022-10-19T20:31:32.001Z,100.00
2022-10-19T20:33:59.606Z,100.00
2022-10-19T20:36:27.277Z,100.00
2022-10-19T20:38:56.471Z,100.00
2022-10-19T20:41:25.773Z,100.00
2022-10-19T20:43:53.941Z,100.00
2022-10-19T20:46:23.324Z,100.00
2022-10-19T20:48:51.003Z,100.00
2022-10-19T20:51:25.990Z,100.00
2022-10-19T20:53:57.380Z,100.00
2022-10-19T20:56:26.767Z,100.00
2022-10-19T20:58:58.141Z,100.00
2022-10-19T21:01:26.722Z,100.00
2022-10-19T21:03:56.234Z,100.00
2022-10-19T21:06:26.117Z,100.00
2022-10-19T21:08:54.190Z,100.00
2022-10-19T21:11:22.964Z,100.00
2022-10-19T21:13:57.760Z,100.00
2022-10-19T21:16:37.757Z,100.00
2022-10-19T21:19:06.986Z,100.00
2022-10-19T21:21:36.151Z,100.00
2022-10-19T21:24:15.288Z,100.00
2022-10-19T21:26:43.091Z,100.00
2022-10-19T21:29:11.430Z,100.00
2022-10-19T21:31:43.052Z,100.00
2022-10-19T21:34:19.150Z,100.00
2022-10-19T21:36:46.994Z,100.00
2022-10-19T21:39:17.515Z,100.00
2022-10-19T21:41:45.416Z,100.00
2022-10-19T21:44:13.945Z,100.00
2022-10-19T21:46:43.722Z,100.00
2022-10-19T21:49:12.297Z,100.00
2022-10-19T21:51:51.151Z,100.00
2022-10-19T21:54:24.847Z,100.00
2022-10-19T21:56:53.507Z,100.00
2022-10-19T21:59:21.228Z,100.00
2022-10-19T22:01:50.343Z,100.00
2022-10-19T22:04:18.534Z,100.00
2022-10-19T22:06:46.283Z,100.00
2022-10-19T22:09:16.216Z,100.00
2022-10-19T22:11:44.150Z,100.00
2022-10-19T22:14:12.801Z,100.00
2022-10-19T22:16:40.822Z,100.00
2022-10-19T22:19:10.865Z,100.00
2022-10-19T22:21:39.777Z,100.00
2022-10-19T22:24:10.693Z,100.00
2022-10-19T22:26:48.092Z,100.00
2022-10-19T22:29:15.763Z,100.00
2022-10-19T22:31:43.526Z,100.00
2022-10-19T22:34:13.523Z,100.00
2022-10-19T22:36:41.081Z,100.00
2022-10-19T22:39:08.818Z,100.00
2022-10-19T22:41:37.114Z,100.00
2022-10-19T22:44:05.114Z,100.00
2022-10-19T22:46:34.038Z,100.00
2022-10-19T22:49:02.245Z,100.00
2022-10-19T22:51:32.523Z,100.00
2022-10-19T22:54:00.733Z,100.00
2022-10-19T22:56:28.673Z,100.00
2022-10-19T22:59:00.456Z,100.00
2022-10-19T23:01:28.505Z,100.00
2022-10-19T23:03:56.662Z,100.00
2022-10-19T23:06:24.554Z,100.00
2022-10-19T23:08:53.138Z,100.00
2022-10-19T23:11:22.310Z,100.00
2022-10-19T23:13:50.082Z,100.00
2022-10-19T23:16:17.997Z,100.00
2022-10-19T23:18:45.662Z,100.00
2022-10-19T23:21:14.700Z,100.00
2022-10-19T23:23:42.584Z,100.00
2022-10-19T23:26:14.177Z,100.00
2022-10-19T23:28:43.303Z,100.00
2022-10-19T23:31:13.079Z,100.00
2022-10-19T23:33:43.201Z,100.00
2022-10-19T23:36:21.116Z,100.00
2022-10-19T23:38:49.380Z,100.00
2022-10-19T23:41:17.631Z,100.00
2022-10-19T23:43:45.610Z,100.00
2022-10-19T23:46:13.436Z,100.00
2022-10-19T23:48:42.484Z,100.00
2022-10-19T23:51:11.966Z,100.00
2022-10-19T23:53:41.728Z,100.00
2022-10-19T23:56:19.247Z,100.00
2022-10-19T23:58:47.269Z,100.00
